Time;durP1;ratioP1;P1;durP2;ratioP2;P2;SDS_P1;SDS_P2;PMS_P1;PMS_P2;Temp;Humidity;BMP_temperature;BMP_pressure;BME280_temperature;BME280_humidity;BME280_pressure;Samples;Min_cycle;Max_cycle;Signal;HPM_P1;HPM_P2
2023/05/10 00:00:41;;;;;;;9.43;6.00;;;22.60;41.70;;;;;;7605265;23;80308;-59
2023/05/10 00:03:41;;;;;;;9.23;5.70;;;22.60;41.70;;;;;;7606370;23;80682;-58
2023/05/10 00:06:42;;;;;;;10.45;5.78;;;22.60;41.70;;;;;;7605706;23;80680;-59
2023/05/10 00:09:42;;;;;;;9.32;5.95;;;22.60;41.80;;;;;;7606847;23;80845;-58
2023/05/10 00:12:43;;;;;;;8.98;5.25;;;22.60;41.80;;;;;;7606259;23;80340;-60
2023/05/10 00:15:43;;;;;;;6.95;5.20;;;22.60;41.80;;;;;;7605619;23;80801;-59
2023/05/10 00:18:44;;;;;;;9.75;5.65;;;22.60;41.90;;;;;;7606455;23;82817;-59
2023/05/10 00:21:45;;;;;;;11.40;6.43;;;22.60;41.80;;;;;;7606893;23;80554;-62
2023/05/10 00:24:45;;;;;;;8.45;5.32;;;22.70;41.80;;;;;;7606004;23;80668;-60
2023/05/10 00:27:46;;;;;;;7.22;5.22;;;22.70;41.80;;;;;;7606251;23;80865;-60
2023/05/10 00:30:46;;;;;;;9.80;5.50;;;22.60;41.80;;;;;;7578795;23;83616;-61
2023/05/10 00:33:47;;;;;;;8.80;5.35;;;22.70;41.80;;;;;;7579937;23;83085;-59
2023/05/10 00:36:47;;;;;;;10.68;5.82;;;22.70;41.90;;;;;;7605952;23;80318;-60
2023/05/10 00:39:48;;;;;;;7.63;4.80;;;22.70;41.90;;;;;;7605385;23;80142;-60
2023/05/10 00:42:48;;;;;;;9.45;5.82;;;22.70;41.90;;;;;;7605642;23;80825;-60
2023/05/10 00:45:49;;;;;;;9.52;5.25;;;22.70;41.90;;;;;;7606498;23;87407;-60
2023/05/10 00:48:50;;;;;;;7.38;5.30;;;22.70;42.60;;;;;;7579520;23;82828;-60
2023/05/10 00:51:50;;;;;;;7.93;5.18;;;22.60;42.10;;;;;;7579225;23;82994;-60
2023/05/10 00:54:51;;;;;;;8.98;5.10;;;22.60;42.30;;;;;;7606130;23;80536;-61
2023/05/10 00:57:51;;;;;;;8.27;5.40;;;22.60;42.30;;;;;;7605769;23;80079;-64
2023/05/10 01:00:52;;;;;;;8.55;5.55;;;22.60;42.30;;;;;;7581409;23;81560;-66
2023/05/10 01:03:53;;;;;;;6.72;5.10;;;22.50;42.20;;;;;;7606500;23;80416;-64
2023/05/10 01:06:53;;;;;;;10.00;5.43;;;22.50;42.80;;;;;;7606429;23;80192;-64
2023/05/10 01:09:54;;;;;;;8.30;5.28;;;22.50;42.30;;;;;;7606014;23;80259;-64
2023/05/10 01:12:54;;;;;;;10.90;5.30;;;22.50;42.20;;;;;;7606254;23;80595;-64
2023/05/10 01:15:55;;;;;;;9.23;5.18;;;22.50;42.20;;;;;;7605995;23;80994;-64
2023/05/10 01:18:56;;;;;;;9.38;5.38;;;22.50;42.20;;;;;;7579098;23;82737;-64
2023/05/10 01:21:56;;;;;;;10.32;5.05;;;22.50;42.20;;;;;;7580099;23;83500;-64
2023/05/10 01:24:57;;;;;;;7.28;4.78;;;22.40;42.10;;;;;;7606510;23;80239;-66
2023/05/10 01:27:57;;;;;;;10.70;6.03;;;22.50;42.20;;;;;;7605108;23;80057;-65
2023/05/10 01:30:58;;;;;;;9.13;5.18;;;22.40;42.10;;;;;;7606282;23;80672;-67
2023/05/10 01:34:00;;;;;;;11.10;5.85;;;22.50;42.20;;;;;;7605996;23;80793;-64
2023/05/10 01:37:00;;;;;;;11.43;4.93;;;22.50;42.10;;;;;;7606129;23;80006;-66
2023/05/10 01:40:01;;;;;;;7.68;5.13;;;22.50;42.10;;;;;;7580148;23;81632;-66
2023/05/10 01:43:01;;;;;;;9.25;5.32;;;22.50;41.90;;;;;;7578875;23;81467;-66
2023/05/10 01:46:04;;;;;;;7.65;4.43;;;22.50;41.90;;;;;;7580302;23;83845;-67
2023/05/10 01:49:06;;;;;;;7.28;5.10;;;22.50;41.80;;;;;;7578392;23;83377;-67
2023/05/10 01:52:06;;;;;;;9.90;5.55;;;22.50;41.80;;;;;;7606241;23;81442;-67
2023/05/10 01:55:07;;;;;;;8.57;4.82;;;22.40;41.80;;;;;;7605664;23;81160;-66
2023/05/10 01:58:09;;;;;;;6.40;4.72;;;22.40;41.80;;;;;;7578487;23;83226;-67
2023/05/10 02:01:09;;;;;;;8.68;5.20;;;22.40;41.80;;;;;;7579251;23;82715;-65
2023/05/10 02:04:10;;;;;;;7.90;4.78;;;22.40;41.80;;;;;;7607116;23;80336;-66
2023/05/10 02:07:11;;;;;;;9.10;4.82;;;22.40;41.80;;;;;;7605457;23;79995;-65
2023/05/10 02:10:11;;;;;;;10.52;5.43;;;22.40;41.70;;;;;;7605274;23;80537;-65
2023/05/10 02:13:12;;;;;;;8.60;5.28;;;22.40;41.70;;;;;;7579148;23;80200;-65
2023/05/10 02:16:12;;;;;;;7.05;4.60;;;22.40;41.80;;;;;;7579144;23;83156;-65
2023/05/10 02:19:13;;;;;;;5.32;4.47;;;22.50;41.80;;;;;;7602736;23;80419;-66
2023/05/10 02:22:13;;;;;;;5.72;4.40;;;22.50;41.90;;;;;;7579592;23;83101;-66
2023/05/10 02:25:14;;;;;;;7.78;4.65;;;22.50;41.80;;;;;;7578689;23;83119;-66
2023/05/10 02:28:14;;;;;;;8.90;4.60;;;22.50;41.80;;;;;;7580194;23;81522;-61
2023/05/10 02:31:15;;;;;;;7.38;4.88;;;22.50;41.80;;;;;;7604139;23;80937;-60
2023/05/10 02:34:15;;;;;;;8.75;4.97;;;22.50;41.80;;;;;;7604501;23;80353;-62
2023/05/10 02:37:16;;;;;;;6.93;4.75;;;22.50;41.80;;;;;;7603925;23;80839;-63
2023/05/10 02:40:17;;;;;;;6.65;4.53;;;22.50;41.80;;;;;;7572010;23;80735;-62
2023/05/10 02:43:18;;;;;;;8.50;4.97;;;22.50;41.80;;;;;;7603663;23;80516;-60
2023/05/10 02:46:18;;;;;;;5.90;4.63;;;22.50;41.80;;;;;;7605148;23;80290;-63
2023/05/10 02:49:19;;;;;;;6.95;4.68;;;22.50;41.70;;;;;;7576964;23;81670;-65
2023/05/10 02:52:20;;;;;;;7.45;4.50;;;22.50;41.70;;;;;;7606665;23;80185;-65
2023/05/10 02:55:20;;;;;;;7.70;4.75;;;22.50;41.80;;;;;;7581112;23;82471;-65
2023/05/10 02:58:21;;;;;;;8.68;4.90;;;22.50;41.70;;;;;;7579817;23;83054;-65
2023/05/10 03:01:22;;;;;;;7.07;4.85;;;22.50;41.70;;;;;;7605381;23;80421;-66
2023/05/10 03:04:23;;;;;;;6.80;4.65;;;22.50;41.60;;;;;;7580679;23;80520;-60
2023/05/10 03:07:24;;;;;;;4.88;4.38;;;22.50;41.60;;;;;;7580580;23;83291;-58
2023/05/10 03:10:24;;;;;;;8.85;5.40;;;22.50;41.60;;;;;;7606499;23;80420;-60
2023/05/10 03:13:25;;;;;;;6.97;4.70;;;22.50;41.60;;;;;;7578690;23;83094;-60
2023/05/10 03:16:26;;;;;;;9.95;5.00;;;22.50;41.50;;;;;;7576326;23;83018;-59
2023/05/10 03:19:26;;;;;;;7.68;4.75;;;22.50;41.50;;;;;;7602734;23;80173;-60
2023/05/10 03:22:27;;;;;;;6.60;4.75;;;22.50;41.50;;;;;;7579763;23;83389;-60
2023/05/10 03:25:27;;;;;;;6.72;4.47;;;22.50;41.50;;;;;;7580031;23;82410;-60
2023/05/10 03:28:28;;;;;;;7.15;4.20;;;22.50;41.80;;;;;;7606896;23;80392;-61
2023/05/10 03:31:29;;;;;;;10.02;5.45;;;22.50;41.60;;;;;;7606014;23;80169;-61
2023/05/10 03:34:29;;;;;;;9.20;4.53;;;22.50;41.60;;;;;;7580114;23;82957;-60
2023/05/10 03:37:30;;;;;;;7.75;5.00;;;22.50;41.50;;;;;;7579188;23;83230;-61
2023/05/10 03:40:31;;;;;;;6.97;4.57;;;22.50;41.50;;;;;;7577539;23;83171;-64
2023/05/10 03:43:32;;;;;;;6.60;4.68;;;22.50;41.50;;;;;;7579906;23;83292;-62
2023/05/10 03:46:33;;;;;;;7.95;4.63;;;22.50;41.80;;;;;;7579950;23;82893;-63
2023/05/10 03:49:34;;;;;;;6.38;4.47;;;22.40;41.80;;;;;;7575616;23;81763;-61
2023/05/10 03:52:35;;;;;;;6.78;4.30;;;22.40;41.80;;;;;;7577497;23;83313;-63
2023/05/10 03:55:36;;;;;;;7.70;4.65;;;22.40;41.80;;;;;;7605963;23;79963;-62
2023/05/10 03:58:36;;;;;;;7.85;4.35;;;22.40;41.60;;;;;;7575533;23;82786;-58
2023/05/10 04:01:38;;;;;;;7.53;4.70;;;22.40;41.60;;;;;;7576367;23;83534;-66
2023/05/10 04:04:38;;;;;;;7.72;4.38;;;22.40;41.80;;;;;;7575063;23;82172;-68
2023/05/10 04:07:39;;;;;;;6.97;5.05;;;22.30;41.70;;;;;;7577624;23;82529;-74
2023/05/10 04:10:39;;;;;;;6.47;4.30;;;22.40;41.90;;;;;;7576381;23;81926;-72
2023/05/10 04:13:40;;;;;;;8.57;4.90;;;22.40;41.90;;;;;;7603390;23;81291;-68
2023/05/10 04:16:41;;;;;;;8.20;4.57;;;22.40;41.80;;;;;;7602297;23;80209;-67
2023/05/10 04:19:41;;;;;;;10.00;4.78;;;22.40;42.00;;;;;;7603656;23;81394;-71
2023/05/10 04:22:42;;;;;;;8.57;4.30;;;22.40;42.20;;;;;;7602285;23;81029;-64
2023/05/10 04:25:42;;;;;;;7.05;4.15;;;22.40;43.10;;;;;;7603319;23;81457;-61
2023/05/10 04:28:43;;;;;;;8.98;3.58;;;22.40;42.20;;;;;;7604064;23;80967;-61
2023/05/10 04:31:43;;;;;;;9.10;4.55;;;22.40;42.50;;;;;;7604198;23;80961;-63
2023/05/10 04:34:44;;;;;;;6.97;3.95;;;22.40;42.80;;;;;;7604236;23;80420;-62
2023/05/10 04:37:45;;;;;;;8.60;4.80;;;22.40;43.20;;;;;;7603235;23;81450;-63
2023/05/10 04:40:45;;;;;;;7.32;3.88;;;22.50;43.30;;;;;;7605214;23;81476;-65
2023/05/10 04:43:46;;;;;;;8.23;3.65;;;22.50;43.50;;;;;;7603375;23;81298;-66
2023/05/10 04:46:46;;;;;;;7.85;4.13;;;22.50;44.00;;;;;;7604038;23;80727;-71
2023/05/10 04:49:47;;;;;;;14.20;4.40;;;22.50;44.30;;;;;;7602992;23;80008;-66
2023/05/10 04:52:47;;;;;;;8.52;4.13;;;22.50;43.70;;;;;;7605251;23;81268;-64
2023/05/10 04:55:48;;;;;;;9.90;3.78;;;22.50;43.60;;;;;;7600107;23;80200;-66
2023/05/10 04:58:49;;;;;;;6.97;3.95;;;22.50;43.90;;;;;;7603058;23;80632;-64
2023/05/10 05:01:50;;;;;;;5.68;3.53;;;22.60;44.00;;;;;;7598929;23;85782;-68
2023/05/10 05:04:50;;;;;;;5.43;3.25;;;22.60;43.70;;;;;;7599787;23;80524;-66
2023/05/10 05:07:51;;;;;;;7.40;3.78;;;22.60;44.20;;;;;;7596666;23;80334;-69
2023/05/10 05:10:51;;;;;;;7.60;3.90;;;22.60;43.60;;;;;;7600072;23;80503;-64
2023/05/10 05:13:52;;;;;;;6.93;3.65;;;22.60;43.50;;;;;;7600634;23;80325;-61
2023/05/10 05:16:53;;;;;;;6.80;3.40;;;22.60;43.40;;;;;;7598895;23;80806;-70
2023/05/10 05:19:53;;;;;;;8.77;3.45;;;22.60;43.60;;;;;;7602889;23;80444;-67
2023/05/10 05:22:54;;;;;;;5.22;3.40;;;22.50;43.50;;;;;;7592990;23;80408;-69
2023/05/10 05:25:55;;;;;;;4.78;3.70;;;22.60;43.50;;;;;;7556158;23;82336;-69
2023/05/10 05:28:55;;;;;;;5.93;3.58;;;22.60;43.40;;;;;;7461171;23;80489;-71
2023/05/10 05:31:56;;;;;;;5.78;3.45;;;22.60;43.10;;;;;;7417186;23;82761;-71
2023/05/10 05:34:56;;;;;;;6.82;4.00;;;22.60;43.10;;;;;;7599833;23;80617;-70
2023/05/10 05:37:57;;;;;;;6.05;3.20;;;22.60;42.90;;;;;;7599551;23;80859;-70
2023/05/10 05:40:57;;;;;;;5.45;3.38;;;22.60;42.80;;;;;;7600752;23;80386;-70
2023/05/10 05:43:58;;;;;;;6.57;4.05;;;22.60;42.80;;;;;;7577890;23;82004;-71
2023/05/10 05:46:58;;;;;;;6.32;3.33;;;22.60;42.80;;;;;;7599237;23;80770;-72
2023/05/10 05:49:59;;;;;;;6.97;3.97;;;22.60;42.80;;;;;;7590864;23;80365;-68
2023/05/10 05:53:00;;;;;;;7.32;3.50;;;22.60;42.90;;;;;;7594983;23;80450;-68
2023/05/10 05:56:00;;;;;;;4.90;3.22;;;22.60;42.90;;;;;;7597446;23;80683;-68
2023/05/10 05:59:01;;;;;;;3.75;3.35;;;22.60;42.90;;;;;;7575328;23;81270;-68
2023/05/10 06:02:01;;;;;;;4.95;3.55;;;22.60;42.70;;;;;;7599495;23;80345;-70
2023/05/10 06:05:02;;;;;;;5.40;3.55;;;22.60;42.70;;;;;;7602162;23;80152;-69
2023/05/10 06:08:02;;;;;;;7.13;3.63;;;22.60;42.80;;;;;;7603087;23;80386;-70
2023/05/10 06:11:04;;;;;;;6.18;3.35;;;22.60;42.80;;;;;;7601576;23;80666;-69
2023/05/10 06:14:04;;;;;;;5.47;3.50;;;22.60;42.70;;;;;;7577140;23;80389;-69
2023/05/10 06:17:06;;;;;;;5.35;3.55;;;22.70;42.80;;;;;;7602859;23;80197;-68
2023/05/10 06:20:07;;;;;;;7.80;3.20;;;22.70;42.70;;;;;;7599512;23;80329;-67
2023/05/10 06:23:07;;;;;;;7.88;3.83;;;22.70;42.70;;;;;;7588320;23;81540;-68
2023/05/10 06:26:08;;;;;;;4.82;3.30;;;22.70;42.70;;;;;;7601615;23;81396;-70
2023/05/10 06:29:08;;;;;;;5.38;3.60;;;22.70;42.90;;;;;;7602400;23;80344;-71
2023/05/10 06:32:09;;;;;;;9.43;3.97;;;22.70;43.10;;;;;;7603222;23;80678;-70
2023/05/10 06:35:09;;;;;;;5.75;3.50;;;22.70;43.20;;;;;;7602405;23;80602;-69
2023/05/10 06:38:10;;;;;;;6.88;3.88;;;22.70;43.30;;;;;;7602908;23;80767;-65
2023/05/10 06:41:11;;;;;;;4.93;3.40;;;22.70;43.10;;;;;;7601304;23;81469;-69
2023/05/10 06:44:12;;;;;;;11.20;3.70;;;22.70;43.20;;;;;;7600897;23;80581;-59
2023/05/10 06:47:13;;;;;;;7.78;3.65;;;22.70;42.90;;;;;;7600756;23;80592;-59
2023/05/10 06:50:13;;;;;;;6.20;3.72;;;22.60;41.60;;;;;;7601761;23;80780;-59
2023/05/10 06:53:14;;;;;;;6.05;3.72;;;22.50;40.90;;;;;;7603660;23;80908;-60
2023/05/10 06:56:14;;;;;;;11.93;4.13;;;22.50;40.70;;;;;;7604115;23;81529;-62
2023/05/10 06:59:16;;;;;;;10.00;4.18;;;22.50;40.60;;;;;;7603818;23;80670;-61
2023/05/10 07:02:16;;;;;;;7.28;4.20;;;22.40;40.50;;;;;;7604841;23;80506;-61
2023/05/10 07:05:17;;;;;;;5.68;4.28;;;22.40;40.40;;;;;;7605185;23;80817;-60
2023/05/10 07:08:18;;;;;;;8.45;3.90;;;22.40;40.40;;;;;;7604046;23;80231;-59
2023/05/10 07:11:18;;;;;;;5.05;3.45;;;22.30;40.30;;;;;;7604694;23;80540;-59
2023/05/10 07:14:19;;;;;;;14.10;4.07;;;22.20;40.30;;;;;;7604093;23;80481;-61
2023/05/10 07:17:19;;;;;;;7.43;3.80;;;22.20;40.50;;;;;;7604138;23;80551;-60
2023/05/10 07:20:20;;;;;;;7.10;3.70;;;22.20;40.60;;;;;;7604838;23;80275;-60
2023/05/10 07:23:20;;;;;;;6.38;3.72;;;22.20;40.60;;;;;;7604285;23;80686;-61
2023/05/10 07:26:21;;;;;;;6.93;4.00;;;22.20;40.60;;;;;;7605049;23;80996;-60
2023/05/10 07:29:21;;;;;;;6.47;3.80;;;22.10;40.70;;;;;;7604625;23;80261;-60
2023/05/10 07:32:22;;;;;;;12.90;4.35;;;22.10;41.20;;;;;;7603922;23;80952;-60
2023/05/10 07:35:23;;;;;;;6.00;3.85;;;22.10;41.20;;;;;;7604784;23;80806;-60
2023/05/10 07:38:24;;;;;;;14.23;4.50;;;22.10;41.10;;;;;;7603204;23;81515;-60
2023/05/10 07:41:24;;;;;;;6.03;3.80;;;22.20;41.20;;;;;;7606052;23;80456;-59
2023/05/10 07:44:25;;;;;;;7.90;3.95;;;22.20;41.20;;;;;;7606206;23;81092;-60
2023/05/10 07:47:25;;;;;;;10.73;4.18;;;22.10;41.20;;;;;;7605452;23;81665;-61
2023/05/10 07:50:26;;;;;;;5.18;3.55;;;22.20;41.30;;;;;;7607202;23;80566;-59
2023/05/10 07:53:27;;;;;;;5.97;3.60;;;22.10;41.30;;;;;;7606971;23;80305;-61
2023/05/10 07:56:29;;;;;;;6.57;3.78;;;22.10;41.40;;;;;;7605984;23;79982;-60
2023/05/10 07:59:29;;;;;;;9.20;3.70;;;22.20;41.40;;;;;;7605932;23;80763;-60
2023/05/10 08:02:30;;;;;;;5.70;3.47;;;22.20;41.50;;;;;;7605961;23;80914;-61
2023/05/10 08:05:30;;;;;;;8.65;3.47;;;22.20;41.60;;;;;;7584977;23;81078;-59
2023/05/10 08:08:31;;;;;;;8.23;3.97;;;22.20;41.50;;;;;;7603149;23;81289;-58
2023/05/10 08:11:31;;;;;;;6.43;3.28;;;22.20;41.40;;;;;;7603381;23;80490;-59
2023/05/10 08:14:32;;;;;;;7.95;4.00;;;22.20;41.40;;;;;;7602135;23;80247;-59
2023/05/10 08:17:33;;;;;;;5.70;3.08;;;22.20;41.90;;;;;;7604079;23;80451;-76
2023/05/10 08:20:33;;;;;;;6.60;3.42;;;22.20;41.40;;;;;;7604441;23;80589;-75
2023/05/10 08:23:34;;;;;;;5.05;3.00;;;22.20;40.90;;;;;;7605044;23;80643;-73
2023/05/10 08:26:34;;;;;;;5.95;2.78;;;22.30;41.30;;;;;;7604328;23;81770;-76
2023/05/10 08:29:35;;;;;;;9.85;3.35;;;22.40;41.10;;;;;;7591651;23;81287;-73
2023/05/10 08:32:37;;;;;;;4.65;2.95;;;22.40;40.90;;;;;;7596472;23;81978;-73
2023/05/10 08:35:38;;;;;;;4.50;2.75;;;22.50;41.00;;;;;;7596639;23;80283;-69
2023/05/10 08:38:38;;;;;;;3.83;2.60;;;22.40;40.50;;;;;;7571705;23;80977;-67
2023/05/10 08:41:39;;;;;;;3.88;2.60;;;22.40;40.60;;;;;;7600802;23;80608;-67
2023/05/10 08:44:40;;;;;;;5.35;2.72;;;22.40;40.00;;;;;;7596538;23;80263;-69
2023/05/10 08:47:40;;;;;;;5.18;2.42;;;22.20;39.40;;;;;;7599248;23;81762;-68
2023/05/10 08:50:41;;;;;;;8.40;2.67;;;22.30;39.50;;;;;;7601325;23;80901;-68
2023/05/10 08:53:42;;;;;;;3.58;2.60;;;22.30;39.20;;;;;;7602443;23;80241;-68
2023/05/10 08:56:42;;;;;;;4.50;2.80;;;22.30;39.40;;;;;;7603067;23;80405;-67
2023/05/10 08:59:43;;;;;;;5.25;2.72;;;22.40;39.70;;;;;;7599784;23;80159;-68
2023/05/10 09:02:45;;;;;;;3.72;2.65;;;22.40;39.30;;;;;;7599358;23;81039;-68
2023/05/10 09:05:46;;;;;;;5.00;2.55;;;22.50;39.50;;;;;;7600881;23;80269;-67
2023/05/10 09:08:47;;;;;;;4.68;2.90;;;22.60;39.50;;;;;;7601512;23;81575;-67
2023/05/10 09:11:48;;;;;;;4.95;2.83;;;22.60;39.60;;;;;;7603572;23;80896;-74
2023/05/10 09:14:48;;;;;;;3.42;2.40;;;22.60;38.90;;;;;;7602284;23;80546;-78
2023/05/10 09:17:49;;;;;;;4.60;2.50;;;22.60;38.30;;;;;;7601913;23;80696;-63
2023/05/10 09:20:49;;;;;;;6.65;2.88;;;22.60;38.70;;;;;;7599272;23;80285;-75
2023/05/10 09:23:50;;;;;;;2.90;2.33;;;22.60;38.70;;;;;;7600916;23;80423;-74
2023/05/10 09:26:51;;;;;;;3.05;2.15;;;22.70;38.80;;;;;;7603110;23;80223;-78
2023/05/10 09:29:54;;;;;;;4.47;2.75;;;22.70;38.60;;;;;;7599114;23;81161;-77
2023/05/10 09:32:54;;;;;;;2.88;2.30;;;22.80;39.30;;;;;;7603250;23;81247;-73
2023/05/10 09:35:55;;;;;;;3.97;2.67;;;22.80;38.50;;;;;;7603462;23;80636;-72
2023/05/10 09:38:55;;;;;;;2.55;1.92;;;22.80;38.10;;;;;;7602350;23;80253;-73
2023/05/10 09:45:21;;;;;;;2.72;2.10;;;22.80;38.20;;;;;;7602060;23;81205;-73
2023/05/10 09:48:22;;;;;;;3.60;2.30;;;22.80;37.90;;;;;;7576818;23;81680;-60
2023/05/10 09:51:22;;;;;;;2.30;2.03;;;22.70;36.50;;;;;;7603016;23;80266;-59
2023/05/10 09:54:24;;;;;;;4.05;1.98;;;22.60;36.80;;;;;;7602434;23;81046;-60
2023/05/10 09:57:25;;;;;;;5.18;2.55;;;22.60;36.90;;;;;;7601326;23;80427;-59
2023/05/10 10:00:25;;;;;;;3.55;1.95;;;22.70;36.50;;;;;;7604156;23;80350;-60
2023/05/10 10:03:26;;;;;;;2.83;2.08;;;22.80;36.70;;;;;;7576009;23;80159;-60
2023/05/10 10:06:28;;;;;;;7.88;2.38;;;22.70;36.50;;;;;;7601747;23;81475;-76
2023/05/10 10:09:28;;;;;;;5.57;1.98;;;22.80;36.70;;;;;;7603218;23;81152;-76
2023/05/10 10:12:29;;;;;;;2.97;1.98;;;22.80;35.50;;;;;;7604342;23;80849;-77
2023/05/10 10:15:29;;;;;;;3.90;1.98;;;22.80;36.00;;;;;;7598940;23;81261;-73
2023/05/10 10:18:30;;;;;;;4.28;2.08;;;22.80;35.20;;;;;;7596491;23;80372;-70
2023/05/10 10:21:30;;;;;;;6.72;1.77;;;22.80;36.10;;;;;;7597424;23;80033;-69
2023/05/10 10:24:31;;;;;;;2.70;1.92;;;22.80;35.70;;;;;;7597618;23;80736;-74
2023/05/10 10:27:31;;;;;;;2.50;1.92;;;22.90;35.60;;;;;;7599446;23;81247;-66
2023/05/10 10:30:32;;;;;;;3.58;2.10;;;23.00;35.40;;;;;;7598464;23;80378;-68
2023/05/10 10:33:32;;;;;;;2.92;1.90;;;23.00;35.90;;;;;;7600934;23;80731;-67
2023/05/10 10:36:33;;;;;;;2.72;2.38;;;23.00;35.00;;;;;;7601363;23;80409;-67
2023/05/10 10:39:36;;;;;;;3.95;2.40;;;22.90;35.80;;;;;;7601057;23;80797;-68
2023/05/10 10:42:36;;;;;;;10.55;2.40;;;23.00;35.50;;;;;;7601869;23;80930;-69
2023/05/10 10:45:37;;;;;;;3.30;1.95;;;23.00;35.30;;;;;;7602137;23;80924;-67
2023/05/10 10:48:37;;;;;;;4.38;1.67;;;23.10;35.50;;;;;;7599078;23;81134;-67
2023/05/10 10:51:38;;;;;;;3.28;1.83;;;23.10;34.70;;;;;;7601838;23;81615;-68
2023/05/10 10:54:39;;;;;;;2.45;2.13;;;23.10;34.50;;;;;;7596145;23;80303;-69
2023/05/10 10:57:39;;;;;;;2.97;2.00;;;23.20;34.60;;;;;;7600536;23;80641;-68
2023/05/10 11:00:40;;;;;;;3.53;2.05;;;23.20;35.20;;;;;;7600834;23;80629;-67
2023/05/10 11:03:41;;;;;;;4.30;2.10;;;23.20;35.10;;;;;;7591434;23;82011;-65
2023/05/10 11:06:42;;;;;;;3.28;1.95;;;23.30;35.20;;;;;;7599073;23;80500;-72
2023/05/10 11:09:42;;;;;;;3.85;2.00;;;23.20;36.20;;;;;;7573950;23;81593;-65
2023/05/10 11:12:43;;;;;;;3.33;1.90;;;23.20;38.10;;;;;;7600328;23;80675;-64
2023/05/10 11:15:43;;;;;;;5.63;2.47;;;23.30;38.00;;;;;;7601750;23;80968;-60
2023/05/10 11:18:44;;;;;;;3.33;2.50;;;23.30;38.20;;;;;;7603298;23;80512;-62
2023/05/10 11:21:44;;;;;;;5.65;2.30;;;23.30;38.60;;;;;;7594830;23;80912;-56
2023/05/10 11:24:45;;;;;;;2.95;2.22;;;23.30;38.40;;;;;;7595555;23;81288;-56
2023/05/10 11:27:45;;;;;;;9.30;2.22;;;23.30;38.00;;;;;;7599940;23;80975;-55
2023/05/10 11:30:46;;;;;;;2.75;2.00;;;23.30;38.80;;;;;;7599883;23;80527;-57
2023/05/10 11:33:47;;;;;;;3.28;2.30;;;23.30;39.20;;;;;;7600084;23;80323;-54
2023/05/10 11:36:47;;;;;;;3.38;2.17;;;23.20;38.10;;;;;;7600952;23;81042;-57
2023/05/10 11:39:48;;;;;;;4.93;2.05;;;23.00;38.30;;;;;;7602205;23;81374;-56
2023/05/10 11:42:48;;;;;;;4.88;2.35;;;23.00;38.70;;;;;;7600212;23;80567;-58
2023/05/10 11:45:49;;;;;;;2.53;2.30;;;23.00;39.40;;;;;;7602104;23;80845;-56
2023/05/10 11:48:50;;;;;;;2.67;2.00;;;23.00;41.20;;;;;;7597148;23;80902;-56
2023/05/10 11:51:50;;;;;;;5.25;2.20;;;23.10;39.40;;;;;;7601085;23;81066;-55
2023/05/10 11:54:51;;;;;;;5.03;1.90;;;23.10;39.50;;;;;;7599173;23;80115;-56
2023/05/10 11:57:51;;;;;;;3.47;2.10;;;23.00;39.40;;;;;;7600903;23;81112;-55
2023/05/10 12:00:52;;;;;;;3.30;2.13;;;23.10;39.90;;;;;;7601358;23;81027;-55
2023/05/10 12:03:52;;;;;;;3.28;2.40;;;23.10;39.60;;;;;;7598203;23;81309;-58
2023/05/10 12:06:53;;;;;;;4.22;2.40;;;23.10;39.90;;;;;;7593512;23;81250;-59
2023/05/10 12:09:53;;;;;;;3.28;2.25;;;23.20;39.70;;;;;;7599606;23;80657;-58
2023/05/10 12:12:54;;;;;;;2.97;1.90;;;23.20;39.90;;;;;;7600851;23;81542;-58
2023/05/10 12:15:54;;;;;;;9.73;2.40;;;23.20;39.60;;;;;;7597900;23;81387;-67
2023/05/10 12:18:55;;;;;;;5.68;2.17;;;23.20;39.80;;;;;;7601560;23;80334;-63
2023/05/10 12:21:55;;;;;;;2.83;2.13;;;23.30;40.00;;;;;;7600315;23;80636;-65
2023/05/10 12:24:56;;;;;;;3.13;2.75;;;23.20;38.70;;;;;;7599659;23;80745;-67
2023/05/10 12:27:56;;;;;;;2.92;2.15;;;23.30;38.90;;;;;;7598302;23;80598;-66
2023/05/10 12:30:57;;;;;;;3.13;2.25;;;23.30;39.80;;;;;;7597738;23;81754;-66
2023/05/10 12:33:57;;;;;;;4.28;2.45;;;23.30;39.10;;;;;;7599112;23;80711;-58
2023/05/10 12:36:58;;;;;;;4.00;2.35;;;23.30;38.40;;;;;;7601822;23;80877;-59
2023/05/10 12:39:58;;;;;;;6.55;2.22;;;23.30;40.00;;;;;;7601976;23;80287;-59
2023/05/10 12:42:59;;;;;;;3.05;2.25;;;23.30;40.00;;;;;;7603897;23;80876;-59
2023/05/10 12:46:00;;;;;;;3.80;2.13;;;23.30;39.60;;;;;;7605554;23;80254;-59
2023/05/10 12:49:00;;;;;;;3.25;1.90;;;23.30;39.70;;;;;;7605451;23;80050;-59
2023/05/10 12:52:01;;;;;;;2.67;2.05;;;23.30;39.90;;;;;;7602725;23;80685;-60
2023/05/10 12:55:02;;;;;;;4.78;2.33;;;23.30;39.20;;;;;;7605455;23;80243;-59
2023/05/10 12:58:03;;;;;;;5.88;2.22;;;23.30;39.50;;;;;;7603825;23;80853;-60
2023/05/10 13:01:04;;;;;;;4.68;2.42;;;23.30;38.90;;;;;;7604892;23;80333;-67
2023/05/10 13:04:05;;;;;;;4.63;2.53;;;23.30;39.60;;;;;;7606175;23;80178;-66
2023/05/10 13:07:05;;;;;;;3.85;2.38;;;23.30;39.70;;;;;;7606635;23;80826;-61
2023/05/10 13:10:06;;;;;;;3.95;2.20;;;23.20;40.00;;;;;;7579481;23;82203;-61
2023/05/10 13:13:08;;;;;;;7.07;2.13;;;23.30;39.10;;;;;;7605235;23;80217;-62
2023/05/10 13:16:08;;;;;;;3.20;2.17;;;23.30;40.00;;;;;;7598507;23;80836;-61
2023/05/10 13:19:09;;;;;;;5.55;2.38;;;23.20;38.80;;;;;;7604211;23;81632;-63
2023/05/10 13:22:09;;;;;;;6.40;2.83;;;23.20;38.80;;;;;;7603501;23;87490;-61
2023/05/10 13:25:10;;;;;;;3.10;2.28;;;23.10;39.40;;;;;;7604873;23;80167;-65
2023/05/10 13:28:11;;;;;;;6.95;2.38;;;23.20;39.30;;;;;;7604634;23;80275;-63
2023/05/10 13:31:11;;;;;;;8.23;2.33;;;23.20;39.50;;;;;;7603218;23;80370;-62
2023/05/10 13:34:12;;;;;;;3.03;2.15;;;23.30;39.80;;;;;;7605239;23;80128;-63
2023/05/10 13:37:13;;;;;;;3.88;2.20;;;23.30;39.00;;;;;;7603095;23;80740;-65
2023/05/10 13:40:15;;;;;;;3.33;2.03;;;23.10;38.00;;;;;;7604759;23;81184;-65
2023/05/10 13:43:15;;;;;;;3.88;2.10;;;23.20;38.80;;;;;;7604214;23;80708;-61
2023/05/10 13:46:16;;;;;;;10.05;2.20;;;23.20;39.20;;;;;;7604798;23;80022;-62
2023/05/10 13:49:17;;;;;;;6.50;2.15;;;23.20;39.90;;;;;;7577148;23;81626;-64
2023/05/10 13:52:18;;;;;;;6.88;2.20;;;23.20;39.90;;;;;;7577457;23;81478;-62
2023/05/10 13:55:18;;;;;;;2.47;1.90;;;23.20;39.80;;;;;;7604474;23;80550;-62
2023/05/10 13:58:19;;;;;;;3.33;2.42;;;23.20;38.60;;;;;;7603749;23;80256;-63
2023/05/10 14:01:19;;;;;;;4.10;2.50;;;23.20;39.60;;;;;;7604397;23;80326;-62
2023/05/10 14:04:20;;;;;;;3.35;2.28;;;23.10;38.20;;;;;;7604313;23;81268;-62
2023/05/10 14:07:21;;;;;;;3.50;2.17;;;23.00;37.60;;;;;;7603552;23;80977;-58
2023/05/10 14:10:22;;;;;;;6.35;2.30;;;22.90;38.90;;;;;;7599053;23;80295;-57
2023/05/10 14:13:22;;;;;;;7.65;1.80;;;23.00;39.10;;;;;;7601205;23;80263;-58
2023/05/10 14:16:23;;;;;;;3.45;2.03;;;23.10;39.40;;;;;;7600195;23;80798;-55
2023/05/10 14:19:23;;;;;;;3.42;2.15;;;23.10;39.30;;;;;;7604017;23;80150;-55
2023/05/10 14:22:24;;;;;;;6.82;1.98;;;23.10;39.80;;;;;;7572949;23;81666;-59
2023/05/10 14:25:25;;;;;;;5.15;2.08;;;23.00;40.60;;;;;;7604216;23;80560;-72
2023/05/10 14:28:25;;;;;;;3.65;2.08;;;23.10;40.40;;;;;;7604119;23;80886;-65
2023/05/10 14:31:26;;;;;;;4.40;2.20;;;23.20;40.50;;;;;;7604381;23;80269;-68
2023/05/10 14:34:27;;;;;;;7.28;2.20;;;23.10;39.60;;;;;;7604196;23;80924;-75
2023/05/10 14:37:27;;;;;;;4.20;2.00;;;23.10;39.90;;;;;;7603723;23;80713;-72
2023/05/10 14:40:28;;;;;;;6.13;1.95;;;23.10;40.30;;;;;;7603114;23;80776;-70
2023/05/10 14:43:30;;;;;;;3.75;2.20;;;23.10;42.00;;;;;;7603042;23;80541;-74
2023/05/10 14:46:30;;;;;;;8.43;3.22;;;23.10;41.20;;;;;;7604099;23;80936;-71
2023/05/10 14:49:31;;;;;;;3.20;2.28;;;23.00;42.10;;;;;;7603591;23;80331;-76
2023/05/10 14:52:32;;;;;;;9.68;3.30;;;23.10;42.10;;;;;;7605362;23;79960;-72
2023/05/10 14:55:32;;;;;;;5.07;2.63;;;23.10;41.00;;;;;;7605649;23;81243;-73
2023/05/10 14:58:33;;;;;;;4.53;2.20;;;23.10;41.30;;;;;;7604873;23;80257;-73
2023/05/10 15:01:37;;;;;;;7.93;2.90;;;23.00;41.20;;;;;;7605135;23;80478;-60
2023/05/10 15:04:37;;;;;;;5.22;2.08;;;23.10;41.10;;;;;;7603197;23;80344;-62
2023/05/10 15:07:38;;;;;;;8.02;2.40;;;23.10;40.60;;;;;;7602633;23;81457;-66
2023/05/10 15:10:38;;;;;;;6.28;2.83;;;23.10;41.50;;;;;;7603286;23;80336;-68
2023/05/10 15:13:39;;;;;;;6.68;2.42;;;23.10;42.00;;;;;;7602428;23;80725;-67
2023/05/10 15:16:39;;;;;;;3.08;2.35;;;23.20;42.20;;;;;;7603593;23;81291;-67
2023/05/10 15:19:40;;;;;;;2.65;2.03;;;23.20;42.40;;;;;;7604376;23;80329;-66
2023/05/10 15:22:41;;;;;;;5.07;2.80;;;23.20;43.30;;;;;;7605137;23;80215;-70
2023/05/10 15:25:42;;;;;;;3.95;3.30;;;23.30;43.50;;;;;;7606038;23;80338;-67
2023/05/10 15:28:42;;;;;;;9.55;3.88;;;23.30;43.50;;;;;;7604584;23;80734;-66
2023/05/10 15:31:43;;;;;;;10.65;5.57;;;23.30;43.80;;;;;;7579231;23;81190;-70
2023/05/10 15:34:44;;;;;;;11.55;5.30;;;23.20;45.40;;;;;;7604584;23;80169;-73
2023/05/10 15:37:44;;;;;;;13.63;7.22;;;23.20;45.10;;;;;;7604099;23;87530;-71
2023/05/10 15:40:45;;;;;;;10.23;6.25;;;23.30;45.40;;;;;;7607095;23;81040;-73